EEL RIVER CAMP CA US current weather conditions

sailwx.info

Wind from 028 at 1 knots gusting 9

Air temperature 8.3° C
Dewpoint 3.2° C

Last reported at 2017-Dec-17 02:28 UTC.
Time now 2017-Dec-17 04:07 UTC

Location: N 40°08' W 123°49'.
View on Google Maps.

See reports from other nearby stations

  
Tides and Currents Weather Stations Pressure Air Temp Water Temp Dewpoint Dewpoint Depression Visibility Wind Speed Wind Dir Waves Ship Positions
date/time (UTC)wind fromknots sea level pressurealtimeterstation pressurevisibilityair tempwater tempwave heightnotes
2017-Dec-17 02:28 028 1 gusting 9 8.3
2017-Dec-17 01:28 327 1 gusting 17 9.4
2017-Dec-17 00:28 049 6 gusting 14 11.1
2017-Dec-16 23:28 001 6 gusting 15 12.8
2017-Dec-16 22:28 326 4 gusting 9 13.3
2017-Dec-16 21:28 333 3 gusting 12 13.3
2017-Dec-16 20:28 014 3 gusting 13 12.8
2017-Dec-16 19:28 023 4 gusting 13 12.2
2017-Dec-16 18:28 082 3 gusting 17 10.6
2017-Dec-16 17:28 064 5 gusting 16 8.9
2017-Dec-16 16:28 122 0 gusting 6 5.6
2017-Dec-16 15:28 068 2 gusting 21 6.1
2017-Dec-16 14:28 068 5 gusting 16 7.2
2017-Dec-16 13:28 049 6 gusting 25 8.3
2017-Dec-16 12:28 353 12 gusting 21 9.4
2017-Dec-16 11:28 017 6 gusting 15 8.9
2017-Dec-16 10:28 360 3 gusting 12 7.8
2017-Dec-16 09:28 026 5 gusting 19 8.9
2017-Dec-16 08:28 013 10 gusting 16 9.4
2017-Dec-16 07:28 335 6 gusting 15 10.0
2017-Dec-16 06:28 329 7 gusting 25 10.6
2017-Dec-16 05:28 340 9 gusting 23 11.7
2017-Dec-16 04:28 004 5 gusting 19 10.6
2017-Dec-16 03:28 165 1 gusting 5 7.8
2017-Dec-16 02:28 241 0 gusting 6 8.3
2017-Dec-16 01:28 103 3 gusting 11 10.6
2017-Dec-16 00:28 135 3 gusting 7 11.1
2017-Dec-15 23:28 059 1 gusting 9 11.1
2017-Dec-15 22:28 081 3 gusting 10 11.7
2017-Dec-15 21:28 195 2 gusting 6 10.6
2017-Dec-15 20:28 160 0 gusting 3 8.3
2017-Dec-15 19:28 158 6.1
2017-Dec-15 18:28 290 0 gusting 2 5.0
2017-Dec-15 17:28 262 0 gusting 3 4.4
2017-Dec-15 16:28 212 0 gusting 2 4.4
2017-Dec-15 15:28 246 0 gusting 2 4.4
2017-Dec-15 14:28 087 4.4
2017-Dec-15 13:28 277 0 gusting 2 4.4
2017-Dec-15 12:28 231 0 gusting 2 5.0
2017-Dec-15 11:28 308 0 gusting 2 5.0
2017-Dec-15 10:28 008 0 gusting 2 5.0
2017-Dec-15 09:28 231 5.6
2017-Dec-15 08:28 288 0 gusting 2 5.6
2017-Dec-15 07:28 034 6.1
2017-Dec-15 06:28 310 6.1
2017-Dec-15 05:28 165 0 gusting 1 6.1
2017-Dec-15 04:28 335 5.6